Time;durP1;ratioP1;P1;durP2;ratioP2;P2;SDS_P1;SDS_P2;PMS_P1;PMS_P2;Temp;Humidity;BMP_temperature;BMP_pressure;BME280_temperature;BME280_humidity;BME280_pressure;Samples;Min_cycle;Max_cycle;Signal;HPM_P1;HPM_P2
2022/06/02 00:00:10;;;;;;;6.47;4.28;;;;;;;16.64;98.57;100180.22;5073631;28;20063;-74
2022/06/02 00:03:01;;;;;;;5.55;3.60;;;;;;;16.69;96.93;100175.31;5073595;28;20088;-74
2022/06/02 00:05:50;;;;;;;9.70;4.00;;;;;;;16.65;96.98;100182.78;5075256;28;20123;-73
2022/06/02 00:08:26;;;;;;;7.60;4.07;;;;;;;16.42;100.00;100165.94;5074722;28;20086;-74
2022/06/02 00:11:07;;;;;;;6.22;3.80;;;;;;;16.46;100.00;100167.38;5075194;28;20044;-74
2022/06/02 00:13:42;;;;;;;6.55;3.92;;;;;;;16.42;99.82;100165.94;5074729;28;20384;-74
2022/06/02 00:16:17;;;;;;;5.97;3.80;;;;;;;16.42;100.00;100165.94;5074876;28;20044;-74
2022/06/02 00:18:52;;;;;;;5.82;3.95;;;;;;;16.51;100.00;100167.00;5074996;28;20044;-74
2022/06/02 00:21:29;;;;;;;6.97;4.00;;;;;;;16.41;100.00;100166.94;5074636;28;20125;-74
2022/06/02 00:24:08;;;;;;;7.70;3.95;;;;;;;16.14;100.00;100169.28;5074917;28;20068;-74
2022/06/02 00:26:46;;;;;;;5.97;4.28;;;;;;;16.23;100.00;100173.88;5074777;28;20421;-74
2022/06/02 00:29:21;;;;;;;7.80;4.13;;;;;;;16.21;100.00;100170.44;5074210;28;20056;-74
2022/06/02 00:31:57;;;;;;;8.07;4.25;;;;;;;15.95;100.00;100172.66;5074376;28;20402;-74
2022/06/02 00:34:37;;;;;;;8.02;4.20;;;;;;;15.91;100.00;100169.34;5074128;28;20049;-74
2022/06/02 00:37:17;;;;;;;6.72;4.03;;;;;;;15.91;100.00;100169.34;5074151;28;20124;-75
2022/06/02 00:39:48;;;;;;;7.63;3.92;;;;;;;15.80;100.00;100161.31;5073337;28;20143;-76
2022/06/02 00:42:40;;;;;;;8.60;4.50;;;;;;;15.76;100.00;100159.88;5074422;28;20068;-76
2022/06/02 00:45:13;;;;;;;6.50;3.95;;;;;;;15.75;100.00;100152.81;5072952;28;20048;-76
2022/06/02 00:48:06;;;;;;;7.07;4.38;;;;;;;15.65;100.00;100151.88;5073603;28;20135;-80
2022/06/02 00:50:44;;;;;;;6.50;3.73;;;;;;;15.57;100.00;100154.28;5074540;28;20040;-81
2022/06/02 00:53:32;;;;;;;5.78;3.80;;;;;;;15.49;100.00;100156.75;5074083;28;20048;-76
2022/06/02 00:59:14;;;;;;;6.82;4.05;;;;;;;15.78;100.00;100155.22;5074209;28;20082;-76
2022/06/02 01:01:42;;;;;;;6.00;3.72;;;;;;;15.77;100.00;100149.97;5074497;28;20094;-82
2022/06/02 01:04:17;;;;;;;7.35;4.07;;;;;;;15.73;100.00;100146.72;5072892;28;20048;-81
2022/06/02 01:07:02;;;;;;;7.13;4.28;;;;;;;15.67;100.00;100166.03;5073996;28;20443;-80
2022/06/02 01:09:54;;;;;;;9.05;4.35;;;;;;;15.66;100.00;100158.94;5074291;28;20036;-75
2022/06/02 01:12:33;;;;;;;7.95;4.45;;;;;;;15.61;100.00;100161.16;5073648;28;20040;-75
2022/06/02 01:15:12;;;;;;;7.82;4.53;;;;;;;15.49;100.00;100154.06;5073979;28;20053;-75
2022/06/02 01:18:04;;;;;;;7.13;4.25;;;;;;;15.52;100.00;100148.44;5073983;28;20047;-77
2022/06/02 01:20:46;;;;;;;7.22;4.75;;;;;;;15.58;100.00;100142.56;5074037;28;20086;-77
2022/06/02 01:23:56;;;;;;;9.40;4.50;;;;;;;15.74;100.00;100143.03;5073803;28;20044;-77
2022/06/02 01:26:51;;;;;;;10.05;4.50;;;;;;;15.78;100.00;100154.38;5066290;28;20060;-76
2022/06/02 01:29:45;;;;;;;6.65;4.43;;;;;;;15.93;100.00;100145.88;5073257;28;20040;-76
2022/06/02 01:32:18;;;;;;;7.68;4.20;;;;;;;15.83;100.00;100139.56;5073645;28;20123;-76
2022/06/02 01:34:59;;;;;;;11.53;4.63;;;;;;;15.87;100.00;100137.47;5072714;28;20055;-76
2022/06/02 01:37:33;;;;;;;5.72;4.43;;;;;;;15.79;100.00;100135.41;5073451;28;20296;-75
2022/06/02 01:40:16;;;;;;;12.30;4.88;;;;;;;15.84;100.00;100119.75;5071858;28;20554;-74
2022/06/02 01:42:55;;;;;;;6.85;4.10;;;;;;;15.90;100.00;100118.38;5073247;28;20041;-71
2022/06/02 01:45:47;;;;;;;7.15;4.15;;;;;;;16.07;100.00;100120.50;5073294;28;20464;-74
2022/06/02 01:48:29;;;;;;;8.70;3.92;;;;;;;15.98;100.00;100116.75;5073238;28;20051;-74
2022/06/02 01:51:05;;;;;;;7.07;4.20;;;;;;;15.93;100.00;100116.31;5073459;28;20044;-75
2022/06/02 01:53:45;;;;;;;6.85;4.25;;;;;;;15.89;100.00;100133.66;5072518;28;20060;-75
2022/06/02 01:56:31;;;;;;;6.20;3.88;;;;;;;15.78;100.00;100124.78;5073131;28;20150;-74
2022/06/02 01:59:20;;;;;;;6.30;4.10;;;;;;;15.91;100.00;100136.22;5072897;28;20074;-75
2022/06/02 02:01:57;;;;;;;7.22;3.90;;;;;;;15.65;100.00;100131.22;5073294;28;20041;-75
2022/06/02 02:05:05;;;;;;;8.30;4.15;;;;;;;15.70;100.00;100122.75;5073018;28;20044;-75
2022/06/02 02:07:49;;;;;;;6.72;3.88;;;;;;;15.79;100.00;100121.13;5073395;28;20044;-74
2022/06/02 02:10:28;;;;;;;6.18;3.60;;;;;;;15.92;100.00;100122.66;5073142;28;20040;-76
2022/06/02 02:13:10;;;;;;;6.80;3.78;;;;;;;15.83;100.00;100136.88;5073230;28;20135;-76
2022/06/02 02:15:49;;;;;;;7.20;3.65;;;;;;;15.93;100.00;100119.00;5073168;28;20049;-75
2022/06/02 02:18:27;;;;;;;6.22;3.40;;;;;;;15.92;100.00;100119.97;5072957;28;20071;-77
2022/06/02 02:21:17;;;;;;;6.88;3.30;;;;;;;15.91;100.00;100123.63;5073305;28;20051;-77
2022/06/02 02:23:57;;;;;;;5.13;3.20;;;;;;;15.94;100.00;100127.91;5073223;28;20057;-76
2022/06/02 02:26:33;;;;;;;8.07;3.38;;;;;;;15.99;100.00;100128.34;5072878;28;20044;-74
2022/06/02 02:29:11;;;;;;;8.15;3.75;;;;;;;16.09;100.00;100123.06;5073106;28;20045;-74
2022/06/02 02:31:47;;;;;;;7.07;3.42;;;;;;;16.14;100.00;100119.00;5072679;28;20051;-74
2022/06/02 02:34:31;;;;;;;6.72;3.08;;;;;;;16.01;100.00;100124.53;5072743;28;20136;-75
2022/06/02 02:37:09;;;;;;;8.23;3.25;;;;;;;16.00;100.00;100141.69;5072957;28;20104;-76
2022/06/02 02:39:47;;;;;;;7.18;3.35;;;;;;;16.06;100.00;100137.63;5072673;28;20041;-74
2022/06/02 02:42:24;;;;;;;5.03;3.10;;;;;;;16.16;100.00;100149.31;5072376;28;20094;-74
2022/06/02 02:45:09;;;;;;;4.40;3.03;;;;;;;16.30;100.00;100161.56;5072954;28;20044;-74
2022/06/02 02:47:43;;;;;;;7.32;3.28;;;;;;;16.14;100.00;100182.72;5072557;28;20379;-74
2022/06/02 02:50:18;;;;;;;4.38;3.15;;;;;;;16.07;100.00;100186.91;5072622;28;20072;-77
2022/06/02 02:52:55;;;;;;;6.82;3.17;;;;;;;16.16;100.00;100194.22;5075183;28;20127;-73
2022/06/02 02:55:30;;;;;;;4.45;2.90;;;;;;;16.36;100.00;100185.28;5076330;28;20041;-73
2022/06/02 02:58:06;;;;;;;8.38;3.50;;;;;;;16.49;100.00;100177.00;5076406;28;20450;-73
2022/06/02 03:00:42;;;;;;;4.55;3.08;;;;;;;16.32;100.00;100186.56;5075901;28;20087;-72
2022/06/02 03:03:17;;;;;;;6.55;3.10;;;;;;;16.29;100.00;100208.31;5076359;28;20047;-73
2022/06/02 03:06:01;;;;;;;4.35;2.70;;;;;;;16.00;100.00;100226.91;5076429;28;20101;-74
2022/06/02 03:08:40;;;;;;;5.88;2.65;;;;;;;16.25;100.00;100223.03;5075993;28;20044;-74
2022/06/02 03:11:29;;;;;;;5.85;2.80;;;;;;;16.37;98.37;100234.59;5076140;28;20051;-74
2022/06/02 03:14:10;;;;;;;4.75;2.70;;;;;;;16.32;99.98;100243.06;5075865;28;20138;-73
2022/06/02 03:16:41;;;;;;;5.28;2.75;;;;;;;16.29;100.00;100252.25;5076250;28;20051;-74
2022/06/02 03:19:19;;;;;;;4.88;2.28;;;;;;;16.38;100.00;100258.69;5076159;28;20032;-72
2022/06/02 03:21:55;;;;;;;4.72;2.53;;;;;;;16.34;97.65;100270.72;5074768;28;20056;-73
2022/06/02 03:24:44;;;;;;;3.97;2.63;;;;;;;16.33;98.34;100271.69;5075681;28;20047;-73
2022/06/02 03:27:25;;;;;;;5.65;2.78;;;;;;;16.33;97.96;100271.69;5075680;28;20043;-77
2022/06/02 03:30:10;;;;;;;5.50;2.75;;;;;;;16.39;100.00;100271.16;5075918;28;20474;-74
2022/06/02 03:33:00;;;;;;;5.13;2.70;;;;;;;16.58;98.54;100265.94;5075945;28;20049;-73
2022/06/02 03:35:38;;;;;;;4.30;2.47;;;;;;;16.59;98.16;100264.94;5075526;28;20445;-73
2022/06/02 03:38:20;;;;;;;7.22;2.95;;;;;;;16.45;99.69;100269.81;5075805;28;20458;-74
2022/06/02 03:41:08;;;;;;;6.57;2.85;;;;;;;16.59;98.26;100278.41;5075614;28;20420;-74
2022/06/02 03:43:47;;;;;;;4.13;2.85;;;;;;;16.58;99.53;100267.78;5075126;28;20082;-73
2022/06/02 03:46:31;;;;;;;6.07;3.05;;;;;;;16.50;100.00;100268.44;5075177;28;20045;-73
2022/06/02 03:49:15;;;;;;;;;;;;;;;16.62;100.00;100271.06;5076251;28;20040;-77
2022/06/02 03:51:54;;;;;;;5.93;3.13;;;;;;;16.57;100.00;100261.53;5075354;28;19926;-77
2022/06/02 03:54:46;;;;;;;6.22;3.20;;;;;;;16.39;100.00;100259.53;5075368;28;20111;-78
2022/06/02 03:57:39;;;;;;;5.28;3.08;;;;;;;16.41;100.00;100258.44;5075311;28;20033;-77
2022/06/02 04:00:16;;;;;;;;;;;;;;;16.47;100.00;100251.69;5075739;28;20055;-77
2022/06/02 04:02:50;;;;;;;6.43;3.60;;;;;;;16.63;100.00;100245.84;5075150;28;19921;-77
2022/06/02 04:05:43;;;;;;;5.63;3.80;;;;;;;16.44;100.00;100231.25;5074578;28;20393;-77
2022/06/02 04:08:30;;;;;;;10.40;4.20;;;;;;;16.56;100.00;100232.91;5074946;28;20509;-77
2022/06/02 04:13:37;;;;;;;7.63;4.05;;;;;;;16.29;100.00;100227.16;5075135;28;20068;-77
2022/06/02 04:14:27;;;;;;;8.02;4.65;;;;;;;16.10;100.00;100221.63;5074818;28;20045;-77
2022/06/02 04:17:01;;;;;;;6.45;4.68;;;;;;;16.15;100.00;100224.78;5075251;28;20037;-77
2022/06/02 04:22:49;;;;;;;7.45;4.82;;;;;;;16.31;100.00;100230.59;5074718;28;20079;-77
2022/06/02 04:25:28;;;;;;;8.90;4.90;;;;;;;16.27;100.00;100242.59;5074435;28;20041;-77
2022/06/02 04:28:08;;;;;;;7.43;5.25;;;;;;;16.30;100.00;100255.78;5074800;28;20394;-77
2022/06/02 04:30:49;;;;;;;6.97;4.95;;;;;;;16.36;100.00;100259.81;5074496;28;20502;-76
2022/06/02 04:33:26;;;;;;;8.68;5.65;;;;;;;16.42;100.00;100252.09;5074501;28;20405;-78
2022/06/02 04:36:04;;;;;;;8.73;5.50;;;;;;;16.49;100.00;100255.94;5074822;28;20044;-76
2022/06/02 04:38:43;;;;;;;6.78;5.00;;;;;;;16.43;100.00;100261.88;5074341;28;20124;-76
2022/06/02 04:41:18;;;;;;;7.65;5.57;;;;;;;16.43;100.00;100259.16;5073063;28;20135;-74
2022/06/02 04:43:53;;;;;;;8.30;5.28;;;;;;;16.51;100.00;100258.53;5074469;28;20040;-74
2022/06/02 04:46:34;;;;;;;10.27;5.15;;;;;;;16.63;100.00;100262.00;5074031;28;20067;-73
2022/06/02 04:49:11;;;;;;;6.25;4.88;;;;;;;16.74;100.00;100254.75;5074285;28;20090;-73
2022/06/02 04:51:51;;;;;;;7.80;5.25;;;;;;;16.71;100.00;100249.63;5073876;28;20052;-75
2022/06/02 04:54:28;;;;;;;8.55;5.70;;;;;;;16.74;100.00;100256.59;5073008;28;20064;-76
2022/06/02 04:57:08;;;;;;;7.60;5.40;;;;;;;16.53;100.00;100260.09;5074084;28;20044;-74
2022/06/02 04:59:47;;;;;;;8.00;6.03;;;;;;;16.60;100.00;100269.38;5072361;28;20057;-73
2022/06/02 05:02:24;;;;;;;8.50;6.00;;;;;;;16.74;100.00;100264.66;5074068;28;20044;-75
2022/06/02 05:04:59;;;;;;;10.18;6.00;;;;;;;16.84;100.00;100260.19;5073800;28;20040;-75
2022/06/02 05:07:38;;;;;;;8.52;5.90;;;;;;;17.07;100.00;100259.03;5073679;28;20101;-74
2022/06/02 05:10:15;;;;;;;8.30;5.35;;;;;;;17.10;100.00;100256.09;5073985;28;20037;-75
2022/06/02 05:12:54;;;;;;;9.35;5.55;;;;;;;17.22;100.00;100254.16;5073580;28;20051;-74
2022/06/02 05:15:42;;;;;;;8.15;5.95;;;;;;;17.10;100.00;100250.72;5072738;28;20040;-76
2022/06/02 05:18:27;;;;;;;8.45;5.18;;;;;;;16.97;100.00;100255.44;5073795;28;20075;-76
2022/06/02 05:21:27;;;;;;;8.52;5.30;;;;;;;17.14;100.00;100257.53;5073620;28;20085;-76
2022/06/02 05:24:28;;;;;;;6.13;4.38;;;;;;;17.14;100.00;100262.91;5072196;28;20056;-81
2022/06/02 05:27:16;;;;;;;10.25;5.15;;;;;;;17.13;100.00;100277.38;5054252;28;20060;-78
2022/06/02 05:30:12;;;;;;;10.70;5.72;;;;;;;16.97;100.00;100266.22;5072044;28;20098;-78
2022/06/02 05:33:02;;;;;;;7.25;4.57;;;;;;;17.08;100.00;100274.25;5073419;28;20470;-77
2022/06/02 05:36:00;;;;;;;6.70;4.75;;;;;;;17.22;100.00;100274.88;5073569;28;20111;-77
2022/06/02 05:38:38;;;;;;;7.07;4.90;;;;;;;17.30;100.00;100280.47;5073100;28;20047;-76
2022/06/02 05:41:17;;;;;;;7.15;4.88;;;;;;;17.38;100.00;100284.19;5073384;28;20432;-74
2022/06/02 05:43:54;;;;;;;9.95;5.60;;;;;;;17.29;100.00;100287.69;5073456;28;20393;-83
2022/06/02 05:46:41;;;;;;;8.02;5.25;;;;;;;17.52;100.00;100282.97;5073254;28;20068;-79
2022/06/02 05:49:21;;;;;;;9.48;5.53;;;;;;;17.41;100.00;100286.59;5073587;28;20041;-82
2022/06/02 05:52:02;;;;;;;8.93;5.78;;;;;;;17.35;100.00;100292.53;5073500;28;20044;-83
2022/06/02 05:54:41;;;;;;;10.30;5.85;;;;;;;17.42;100.00;100287.47;5072804;28;20401;-77
2022/06/02 05:57:26;;;;;;;8.82;6.18;;;;;;;17.58;100.00;100287.81;5073387;28;20125;-78
2022/06/02 06:00:18;;;;;;;10.00;6.38;;;;;;;17.61;100.00;100281.28;5072846;28;20040;-78
2022/06/02 06:03:04;;;;;;;9.73;6.88;;;;;;;17.63;100.00;100285.56;5072931;28;20053;-78
2022/06/02 06:05:37;;;;;;;11.18;6.72;;;;;;;17.68;100.00;100294.09;5073101;28;20037;-76
2022/06/02 06:08:39;;;;;;;11.18;6.78;;;;;;;17.78;100.00;100293.31;5073174;28;20048;-85
2022/06/02 06:11:21;;;;;;;9.88;6.72;;;;;;;18.05;100.00;100289.94;5073304;28;20053;-82
2022/06/02 06:14:32;;;;;;;8.13;5.90;;;;;;;18.46;100.00;100294.28;5077457;28;20036;-82
2022/06/02 06:17:11;;;;;;;7.57;4.80;;;;;;;20.24;90.60;100296.00;5041669;28;20097;-86
2022/06/02 06:19:56;;;;;;;7.45;4.93;;;;;;;19.87;89.70;100295.25;5072818;28;20076;-85
2022/06/02 06:22:43;;;;;;;7.18;4.35;;;;;;;19.89;87.73;100307.66;5072787;28;20041;-90
2022/06/02 06:25:27;;;;;;;7.90;4.00;;;;;;;23.17;69.23;100307.50;5073283;28;20045;-88
2022/06/02 06:28:09;;;;;;;8.15;4.47;;;;;;;23.91;62.29;100306.28;5074731;28;20051;-84
2022/06/02 06:30:59;;;;;;;7.60;3.90;;;;;;;22.11;69.45;100303.81;5076585;28;20044;-83
2022/06/02 06:33:44;;;;;;;8.90;4.10;;;;;;;20.63;74.73;100316.56;5074834;28;20056;-87
2022/06/02 06:36:31;;;;;;;8.02;3.95;;;;;;;20.54;74.76;100304.78;5076957;28;20040;-86
2022/06/02 06:39:09;;;;;;;10.82;4.10;;;;;;;20.15;76.42;100317.75;5076620;28;20048;-87
2022/06/02 06:41:59;;;;;;;6.45;3.88;;;;;;;20.24;77.36;100319.53;5076800;28;20051;-92
2022/06/02 06:44:38;;;;;;;7.43;3.88;;;;;;;19.88;79.53;100326.72;5077944;28;20041;-90
2022/06/02 06:47:10;;;;;;;9.30;4.07;;;;;;;20.21;78.14;100336.09;5077252;28;20040;-89
2022/06/02 06:49:52;;;;;;;7.20;4.10;;;;;;;19.98;78.40;100333.81;5076740;28;20037;-87
2022/06/02 06:52:33;;;;;;;8.75;4.18;;;;;;;20.04;79.47;100342.31;5077274;28;20040;-76
2022/06/02 06:55:14;;;;;;;7.03;4.07;;;;;;;20.05;79.15;100330.47;5076640;28;20048;-82
2022/06/02 06:57:51;;;;;;;8.63;4.40;;;;;;;19.76;80.54;100333.34;5075802;28;20087;-81
2022/06/02 07:00:24;;;;;;;6.30;4.18;;;;;;;20.24;77.43;100338.50;5076222;28;20077;-82
2022/06/02 07:03:04;;;;;;;9.27;4.22;;;;;;;20.18;78.19;100337.25;5076496;28;20044;-81
2022/06/02 07:05:38;;;;;;;7.03;4.45;;;;;;;20.89;75.14;100335.63;5075759;28;20044;-75
2022/06/02 07:08:19;;;;;;;7.97;4.50;;;;;;;20.99;75.20;100336.38;5076228;28;20044;-78
2022/06/02 07:10:58;;;;;;;9.30;4.50;;;;;;;20.82;75.71;100344.34;5075989;28;20427;-78
2022/06/02 07:13:32;;;;;;;7.85;4.38;;;;;;;21.26;73.57;100346.25;5076178;28;20052;-77
2022/06/02 07:16:09;;;;;;;7.82;4.20;;;;;;;21.38;72.72;100351.28;5075372;28;20118;-77
2022/06/02 07:18:47;;;;;;;10.48;4.25;;;;;;;21.14;73.48;100356.50;5075884;28;20127;-79
2022/06/02 07:21:28;;;;;;;7.25;3.78;;;;;;;21.53;70.94;100358.84;5076041;28;20045;-78
2022/06/02 07:24:10;;;;;;;5.53;3.55;;;;;;;21.54;70.45;100353.25;5076019;28;20044;-78
2022/06/02 07:26:58;;;;;;;7.85;3.47;;;;;;;21.69;69.01;100343.47;5075842;28;20036;-78
2022/06/02 07:29:51;;;;;;;9.93;3.90;;;;;;;21.62;69.57;100342.44;5076137;28;20470;-79
2022/06/02 07:32:44;;;;;;;6.90;3.13;;;;;;;22.32;65.17;100344.97;5075934;28;20474;-78
2022/06/02 07:35:42;;;;;;;9.25;3.92;;;;;;;22.23;67.20;100338.66;5045214;28;20143;-78
2022/06/02 07:38:19;;;;;;;6.13;3.45;;;;;;;22.37;64.78;100325.44;5075359;28;20048;-79
2022/06/02 07:41:07;;;;;;;6.07;3.72;;;;;;;22.53;64.22;100322.75;5075351;28;20079;-78
2022/06/02 07:44:03;;;;;;;6.45;3.42;;;;;;;22.48;64.21;100327.81;5075549;28;20044;-80
2022/06/02 07:46:52;;;;;;;5.75;3.70;;;;;;;22.21;65.85;100327.09;5075530;28;20079;-85
2022/06/02 07:49:38;;;;;;;5.30;3.05;;;;;;;22.27;63.89;100331.84;5075470;28;20091;-79
2022/06/02 07:52:14;;;;;;;5.18;3.30;;;;;;;22.15;64.43;100335.91;5075556;28;20072;-80
2022/06/02 07:54:49;;;;;;;5.45;3.28;;;;;;;22.27;64.51;100341.88;5075196;28;20040;-80
2022/06/02 07:57:32;;;;;;;4.55;2.85;;;;;;;22.26;60.27;100341.03;5075519;28;20068;-80
2022/06/02 08:00:09;;;;;;;7.38;3.05;;;;;;;22.43;61.52;100332.94;5075731;28;20059;-80
2022/06/02 08:03:02;;;;;;;6.13;3.00;;;;;;;22.40;63.46;100341.41;5075014;28;20105;-80
2022/06/02 08:05:39;;;;;;;6.65;3.80;;;;;;;22.97;63.83;100341.50;5074589;28;20055;-80
2022/06/02 08:08:17;;;;;;;8.30;3.67;;;;;;;23.12;60.97;100343.38;5075137;28;20094;-81
2022/06/02 08:11:03;;;;;;;7.57;3.70;;;;;;;23.03;60.68;100338.09;5074631;28;20041;-80
2022/06/02 08:13:39;;;;;;;6.57;3.38;;;;;;;23.00;61.86;100343.91;5075060;28;20048;-80
2022/06/02 08:16:12;;;;;;;8.02;3.97;;;;;;;23.05;60.52;100346.94;5074030;28;20461;-80
2022/06/02 08:19:04;;;;;;;6.07;3.65;;;;;;;23.24;60.79;100352.03;5074513;28;20401;-80
2022/06/02 08:21:39;;;;;;;6.43;3.70;;;;;;;23.14;60.78;100351.34;5074905;28;20047;-79
2022/06/02 08:24:33;;;;;;;7.18;3.85;;;;;;;23.31;59.33;100350.31;5074915;28;20048;-80
2022/06/02 08:27:20;;;;;;;6.53;3.50;;;;;;;23.35;60.81;100348.94;5074832;28;20123;-80
2022/06/02 08:30:02;;;;;;;6.72;3.70;;;;;;;23.83;58.13;100341.72;5074802;28;20123;-79
2022/06/02 08:32:51;;;;;;;6.28;3.90;;;;;;;23.27;58.86;100346.25;5073821;28;20052;-80
2022/06/02 08:35:28;;;;;;;6.70;3.38;;;;;;;22.97;61.86;100339.66;5074889;28;20410;-80
2022/06/02 08:38:15;;;;;;;5.70;3.38;;;;;;;23.32;61.45;100343.84;5074427;28;20044;-79
2022/06/02 08:41:29;;;;;;;6.97;3.92;;;;;;;23.32;59.82;100354.75;5074309;28;20040;-80
2022/06/02 08:44:34;;;;;;;5.80;3.55;;;;;;;23.27;59.65;100354.44;5062244;28;20068;-80
2022/06/02 08:47:38;;;;;;;5.85;3.60;;;;;;;23.16;61.70;100343.88;5052180;28;20101;-80
2022/06/02 08:50:52;;;;;;;7.18;3.90;;;;;;;22.60;62.10;100345.53;5074341;28;20068;-80
2022/06/02 08:53:39;;;;;;;;;;;;;;;22.44;62.74;100353.66;5074637;28;20064;-80
2022/06/02 08:56:31;;;;;;;6.32;3.65;;;;;;;22.63;63.24;100358.78;5073986;28;19990;-80
2022/06/02 08:59:22;;;;;;;5.78;3.65;;;;;;;22.59;64.89;100356.59;5074013;28;20059;-80
2022/06/02 09:02:17;;;;;;;6.68;3.70;;;;;;;22.80;64.64;100360.50;5072681;28;20114;-80
2022/06/02 09:05:35;;;;;;;6.50;4.20;;;;;;;22.64;63.67;100360.47;5073586;28;20040;-79
2022/06/02 09:08:23;;;;;;;5.85;3.83;;;;;;;22.65;64.74;100353.19;5074260;28;20048;-79
2022/06/02 09:11:12;;;;;;;7.00;3.70;;;;;;;22.91;65.84;100351.19;5073861;28;20051;-80
2022/06/02 09:14:11;;;;;;;8.32;3.90;;;;;;;23.09;64.54;100342.88;5056346;28;20052;-80
2022/06/02 09:16:56;;;;;;;4.28;2.90;;;;;;;23.07;62.27;100366.69;5073616;28;20041;-79
2022/06/02 09:19:55;;;;;;;4.97;2.80;;;;;;;22.95;61.38;100365.28;5074028;28;20049;-79
2022/06/02 09:22:34;;;;;;;5.53;2.97;;;;;;;22.78;63.35;100361.72;5073866;28;20044;-79
2022/06/02 09:25:21;;;;;;;4.95;2.90;;;;;;;23.04;62.44;100361.56;5073497;28;20110;-79
2022/06/02 09:28:06;;;;;;;4.38;2.42;;;;;;;23.03;61.73;100362.59;5072228;28;20500;-79
2022/06/02 09:30:48;;;;;;;5.18;2.53;;;;;;;23.23;63.37;100366.66;5073809;28;20124;-79
2022/06/02 09:33:48;;;;;;;5.68;2.90;;;;;;;23.25;61.11;100370.03;5073398;28;20528;-78
2022/06/02 09:36:50;;;;;;;5.07;2.95;;;;;;;23.40;61.14;100371.06;5073783;28;20040;-79
2022/06/02 09:39:45;;;;;;;6.95;3.40;;;;;;;23.63;61.41;100370.38;5073834;28;20044;-78
2022/06/02 09:42:36;;;;;;;4.47;2.92;;;;;;;23.35;60.79;100378.88;5073749;28;20139;-79
2022/06/02 09:45:21;;;;;;;5.03;2.67;;;;;;;23.21;61.30;100371.44;5073757;28;20052;-79
2022/06/02 09:48:18;;;;;;;4.50;2.58;;;;;;;23.41;62.25;100369.19;5073074;28;20478;-79
2022/06/02 09:51:06;;;;;;;3.60;2.30;;;;;;;23.68;62.03;100368.00;5073326;28;20397;-79
2022/06/02 09:54:03;;;;;;;5.47;2.90;;;;;;;23.52;59.66;100370.69;5073332;28;20052;-80
2022/06/02 09:56:53;;;;;;;3.58;2.40;;;;;;;23.68;60.04;100359.81;5073379;28;20470;-80
2022/06/02 09:59:28;;;;;;;7.35;3.10;;;;;;;23.73;59.89;100364.72;5073379;28;20052;-80
2022/06/02 10:02:12;;;;;;;5.15;3.20;;;;;;;23.82;62.22;100358.22;5072109;28;20048;-80
2022/06/02 10:05:00;;;;;;;5.65;2.97;;;;;;;23.87;59.94;100364.88;5072714;28;20049;-79
2022/06/02 10:08:03;;;;;;;4.57;3.00;;;;;;;23.80;61.13;100354.84;5073521;28;20123;-81
2022/06/02 10:10:48;;;;;;;4.18;2.80;;;;;;;23.86;61.71;100348.69;5070756;28;20056;-81
2022/06/02 10:13:43;;;;;;;5.18;3.15;;;;;;;23.96;60.10;100344.75;5073214;28;20064;-79
2022/06/02 10:16:40;;;;;;;6.45;3.33;;;;;;;24.07;59.79;100345.38;5072894;28;20041;-79
2022/06/02 10:19:41;;;;;;;6.32;3.28;;;;;;;23.90;60.27;100347.31;5072078;28;20071;-79
2022/06/02 10:22:22;;;;;;;4.68;2.83;;;;;;;24.15;59.97;100350.78;5073112;28;20048;-79
2022/06/02 10:25:12;;;;;;;4.75;3.10;;;;;;;24.35;61.31;100343.91;5072951;28;20048;-80
2022/06/02 10:28:16;;;;;;;5.28;3.13;;;;;;;24.38;59.61;100342.69;5072738;28;20045;-86
2022/06/02 10:31:32;;;;;;;4.75;2.97;;;;;;;24.97;59.04;100335.59;5073042;28;20051;-80
2022/06/02 10:34:48;;;;;;;5.85;3.05;;;;;;;24.84;57.09;100340.84;5072723;28;20044;-80
2022/06/02 10:37:32;;;;;;;5.07;2.63;;;;;;;24.91;57.54;100335.50;5073093;28;20482;-80
2022/06/02 10:40:14;;;;;;;4.18;2.60;;;;;;;24.63;58.51;100338.78;5072587;28;20068;-80
2022/06/02 10:43:17;;;;;;;3.70;2.67;;;;;;;24.91;57.29;100341.81;5073097;28;20135;-80
2022/06/02 10:46:15;;;;;;;4.00;2.45;;;;;;;25.00;59.07;100340.72;5060282;28;20052;-80
2022/06/02 10:49:15;;;;;;;4.65;3.08;;;;;;;25.27;57.70;100332.97;5067796;28;20060;-80
2022/06/02 10:52:23;;;;;;;4.95;2.72;;;;;;;25.37;57.46;100322.63;5072872;28;20470;-83
2022/06/02 10:55:21;;;;;;;5.63;2.80;;;;;;;25.50;56.34;100328.31;5072689;28;20064;-79
2022/06/02 10:58:21;;;;;;;4.40;2.50;;;;;;;25.64;56.95;100332.94;5071041;28;20056;-79
2022/06/02 11:01:16;;;;;;;6.10;2.80;;;;;;;25.60;55.77;100348.00;5060202;28;20049;-80
2022/06/02 11:04:22;;;;;;;4.40;2.67;;;;;;;25.64;56.74;100341.13;5072653;28;20045;-80
2022/06/02 11:07:26;;;;;;;5.82;2.90;;;;;;;25.81;55.41;100343.72;5072595;28;20066;-80
2022/06/02 11:10:19;;;;;;;4.70;2.42;;;;;;;25.92;56.35;100344.06;5050024;28;20052;-80
2022/06/02 11:13:23;;;;;;;5.23;2.67;;;;;;;25.91;55.20;100338.81;5063688;28;20130;-80
2022/06/02 11:16:31;;;;;;;4.10;2.60;;;;;;;25.78;56.07;100346.84;5076116;28;20072;-80
2022/06/02 11:19:31;;;;;;;4.22;2.70;;;;;;;25.65;57.85;100331.88;5076032;28;20093;-80
2022/06/02 11:22:31;;;;;;;3.97;2.67;;;;;;;25.75;56.74;100330.78;5075863;28;20045;-79
2022/06/02 11:25:50;;;;;;;4.45;2.50;;;;;;;25.66;56.13;100319.94;5075849;28;20411;-79
2022/06/02 11:28:42;;;;;;;4.72;2.95;;;;;;;25.60;56.74;100334.34;5075956;28;20461;-79
2022/06/02 11:31:46;;;;;;;4.57;2.25;;;;;;;26.11;55.42;100328.97;5075716;28;20051;-80
2022/06/02 11:34:29;;;;;;;3.83;2.22;;;;;;;26.24;54.68;100311.88;5071706;28;20485;-80
2022/06/02 11:37:43;;;;;;;3.40;2.28;;;;;;;26.55;53.95;100330.78;5074543;28;20040;-80
2022/06/02 11:40:53;;;;;;;5.15;2.80;;;;;;;26.22;54.02;100331.22;5013728;28;20054;-79
2022/06/02 11:43:27;;;;;;;4.82;2.85;;;;;;;26.04;53.49;100338.97;5075653;28;20069;-79
2022/06/02 11:46:21;;;;;;;4.35;2.40;;;;;;;26.05;53.97;100335.19;5075344;28;20052;-80
2022/06/02 11:49:18;;;;;;;6.25;2.80;;;;;;;25.93;53.83;100347.66;5075253;28;20041;-80
2022/06/02 11:52:21;;;;;;;4.57;2.65;;;;;;;26.34;52.74;100345.22;5074578;28;20084;-80
2022/06/02 11:55:12;;;;;;;3.80;2.60;;;;;;;26.22;53.18;100347.63;5075264;28;20044;-80
2022/06/02 11:57:57;;;;;;;4.75;2.70;;;;;;;26.15;53.86;100348.56;5075178;28;20048;-81
2022/06/02 12:01:13;;;;;;;4.70;2.50;;;;;;;25.93;53.49;100348.50;5075431;28;20052;-79
2022/06/02 12:04:34;;;;;;;3.05;2.28;;;;;;;26.43;52.95;100343.25;5044100;28;20080;-80
2022/06/02 12:07:21;;;;;;;5.05;2.78;;;;;;;26.08;53.17;100344.91;5073754;28;20048;-79
2022/06/02 12:10:18;;;;;;;4.00;2.30;;;;;;;26.02;53.48;100351.97;5073649;28;20048;-81
2022/06/02 12:13:02;;;;;;;6.72;2.40;;;;;;;26.28;51.52;100345.16;5075242;28;20049;-80
2022/06/02 12:16:10;;;;;;;3.78;2.10;;;;;;;26.56;50.94;100348.91;5075258;28;20051;-80
2022/06/02 12:18:48;;;;;;;4.57;2.22;;;;;;;26.02;52.64;100340.22;5013213;28;20046;-80
2022/06/02 12:21:40;;;;;;;4.40;1.92;;;;;;;26.51;51.04;100345.88;4996701;28;20049;-80
2022/06/02 12:24:31;;;;;;;3.72;2.28;;;;;;;26.62;50.22;100353.56;5055340;28;20114;-80
2022/06/02 12:27:23;;;;;;;3.65;1.92;;;;;;;26.13;50.80;100346.03;5074453;28;20044;-80
2022/06/02 12:30:14;;;;;;;4.05;2.33;;;;;;;25.86;51.55;100346.72;5073458;28;20044;-80
2022/06/02 12:33:07;;;;;;;4.53;2.13;;;;;;;26.14;51.05;100350.44;5073528;28;20076;-80
2022/06/02 12:36:06;;;;;;;2.60;2.00;;;;;;;26.02;50.91;100357.44;5073401;28;20045;-80
2022/06/02 12:38:49;;;;;;;3.22;2.13;;;;;;;25.93;50.55;100343.03;5069018;28;20064;-80
2022/06/02 12:41:31;;;;;;;3.60;2.10;;;;;;;26.06;50.15;100341.53;5074507;28;20055;-79
2022/06/02 12:44:18;;;;;;;2.90;1.90;;;;;;;26.41;50.98;100337.13;5074254;28;20068;-80
2022/06/02 12:47:08;;;;;;;3.58;1.80;;;;;;;26.77;48.04;100340.69;5074420;28;20048;-80
2022/06/02 12:50:10;;;;;;;2.88;1.70;;;;;;;26.78;45.92;100347.84;5073249;28;20060;-80
2022/06/02 12:53:11;;;;;;;2.65;1.60;;;;;;;26.56;46.09;100354.38;5074445;28;20040;-80
2022/06/02 12:56:02;;;;;;;3.50;1.50;;;;;;;26.71;46.22;100360.63;5074424;28;20056;-80